sensor_id;sensor_type;location;lat;lon;timestamp;P1;durP1;ratioP1;P2;durP2;ratioP2
55222;SDS011;41090;48.632;12.428;2023-07-28T00:00:44;3.70;;;3.40;;
55222;SDS011;41090;48.632;12.428;2023-07-28T00:03:10;4.13;;;3.70;;
55222;SDS011;41090;48.632;12.428;2023-07-28T00:05:35;4.90;;;3.40;;
55222;SDS011;41090;48.632;12.428;2023-07-28T00:08:01;3.70;;;2.83;;
55222;SDS011;41090;48.632;12.428;2023-07-28T00:10:26;4.13;;;3.73;;
55222;SDS011;41090;48.632;12.428;2023-07-28T00:12:51;3.60;;;3.30;;
55222;SDS011;41090;48.632;12.428;2023-07-28T00:15:17;3.30;;;3.00;;
55222;SDS011;41090;48.632;12.428;2023-07-28T00:17:42;5.67;;;4.03;;
55222;SDS011;41090;48.632;12.428;2023-07-28T00:20:10;4.50;;;4.10;;
55222;SDS011;41090;48.632;12.428;2023-07-28T00:22:35;4.33;;;3.90;;
55222;SDS011;41090;48.632;12.428;2023-07-28T00:25:01;5.07;;;3.57;;
55222;SDS011;41090;48.632;12.428;2023-07-28T00:27:26;4.17;;;3.77;;
55222;SDS011;41090;48.632;12.428;2023-07-28T00:29:51;4.60;;;3.97;;
55222;SDS011;41090;48.632;12.428;2023-07-28T00:32:17;3.63;;;3.33;;
55222;SDS011;41090;48.632;12.428;2023-07-28T00:34:42;4.03;;;3.73;;
55222;SDS011;41090;48.632;12.428;2023-07-28T00:37:08;3.60;;;3.30;;
55222;SDS011;41090;48.632;12.428;2023-07-28T00:39:33;3.70;;;3.27;;
55222;SDS011;41090;48.632;12.428;2023-07-28T00:41:58;3.47;;;3.17;;
55222;SDS011;41090;48.632;12.428;2023-07-28T00:44:24;4.10;;;3.80;;
55222;SDS011;41090;48.632;12.428;2023-07-28T00:46:49;3.90;;;3.00;;
55222;SDS011;41090;48.632;12.428;2023-07-28T00:49:14;4.20;;;3.80;;
55222;SDS011;41090;48.632;12.428;2023-07-28T00:51:40;4.77;;;4.37;;
55222;SDS011;41090;48.632;12.428;2023-07-28T00:54:06;5.10;;;3.90;;
55222;SDS011;41090;48.632;12.428;2023-07-28T00:56:31;3.73;;;3.43;;
55222;SDS011;41090;48.632;12.428;2023-07-28T00:58:56;5.90;;;4.10;;
55222;SDS011;41090;48.632;12.428;2023-07-28T01:01:22;4.23;;;3.90;;
55222;SDS011;41090;48.632;12.428;2023-07-28T01:03:48;3.97;;;3.60;;
55222;SDS011;41090;48.632;12.428;2023-07-28T01:09:02;4.53;;;3.90;;
55222;SDS011;41090;48.632;12.428;2023-07-28T01:11:28;4.90;;;4.10;;
55222;SDS011;41090;48.632;12.428;2023-07-28T01:13:54;4.57;;;3.30;;
55222;SDS011;41090;48.632;12.428;2023-07-28T01:16:19;5.53;;;4.40;;
55222;SDS011;41090;48.632;12.428;2023-07-28T01:18:44;8.03;;;4.23;;
55222;SDS011;41090;48.632;12.428;2023-07-28T01:21:13;6.53;;;4.50;;
55222;SDS011;41090;48.632;12.428;2023-07-28T01:26:30;4.83;;;3.80;;
55222;SDS011;41090;48.632;12.428;2023-07-28T01:28:56;4.07;;;3.67;;
55222;SDS011;41090;48.632;12.428;2023-07-28T01:31:21;5.33;;;4.40;;
55222;SDS011;41090;48.632;12.428;2023-07-28T01:33:47;4.30;;;4.00;;
55222;SDS011;41090;48.632;12.428;2023-07-28T01:36:12;4.47;;;4.07;;
55222;SDS011;41090;48.632;12.428;2023-07-28T01:38:37;4.40;;;4.00;;
55222;SDS011;41090;48.632;12.428;2023-07-28T01:41:02;4.50;;;4.10;;
55222;SDS011;41090;48.632;12.428;2023-07-28T01:43:28;4.33;;;3.93;;
55222;SDS011;41090;48.632;12.428;2023-07-28T01:45:53;4.23;;;3.83;;
55222;SDS011;41090;48.632;12.428;2023-07-28T01:48:18;5.20;;;3.80;;
55222;SDS011;41090;48.632;12.428;2023-07-28T01:50:44;3.60;;;3.30;;
55222;SDS011;41090;48.632;12.428;2023-07-28T01:53:09;4.40;;;3.80;;
55222;SDS011;41090;48.632;12.428;2023-07-28T01:55:34;4.57;;;4.17;;
55222;SDS011;41090;48.632;12.428;2023-07-28T01:58:00;4.67;;;4.23;;
55222;SDS011;41090;48.632;12.428;2023-07-28T02:00:26;5.17;;;4.23;;
55222;SDS011;41090;48.632;12.428;2023-07-28T02:02:52;4.50;;;4.10;;
55222;SDS011;41090;48.632;12.428;2023-07-28T02:05:18;4.10;;;3.80;;
55222;SDS011;41090;48.632;12.428;2023-07-28T02:07:43;4.90;;;4.17;;
55222;SDS011;41090;48.632;12.428;2023-07-28T02:10:08;4.13;;;3.83;;
55222;SDS011;41090;48.632;12.428;2023-07-28T02:12:35;4.60;;;4.20;;
55222;SDS011;41090;48.632;12.428;2023-07-28T02:15:00;4.50;;;4.10;;
55222;SDS011;41090;48.632;12.428;2023-07-28T02:17:25;5.47;;;3.90;;
55222;SDS011;41090;48.632;12.428;2023-07-28T02:19:51;3.93;;;3.63;;
55222;SDS011;41090;48.632;12.428;2023-07-28T02:22:16;4.47;;;3.80;;
55222;SDS011;41090;48.632;12.428;2023-07-28T02:24:41;4.07;;;3.77;;
55222;SDS011;41090;48.632;12.428;2023-07-28T02:27:06;4.73;;;3.70;;
55222;SDS011;41090;48.632;12.428;2023-07-28T02:29:32;3.80;;;3.40;;
55222;SDS011;41090;48.632;12.428;2023-07-28T02:31:57;5.57;;;4.20;;
55222;SDS011;41090;48.632;12.428;2023-07-28T02:34:22;4.67;;;4.20;;
55222;SDS011;41090;48.632;12.428;2023-07-28T02:36:48;4.80;;;4.33;;
55222;SDS011;41090;48.632;12.428;2023-07-28T02:39:13;5.03;;;4.00;;
55222;SDS011;41090;48.632;12.428;2023-07-28T02:41:38;5.00;;;4.10;;
55222;SDS011;41090;48.632;12.428;2023-07-28T02:44:03;4.20;;;3.90;;
55222;SDS011;41090;48.632;12.428;2023-07-28T02:46:29;3.67;;;3.37;;
55222;SDS011;41090;48.632;12.428;2023-07-28T02:48:54;4.07;;;3.67;;
55222;SDS011;41090;48.632;12.428;2023-07-28T02:51:19;3.97;;;3.60;;
55222;SDS011;41090;48.632;12.428;2023-07-28T02:53:45;4.70;;;3.77;;
55222;SDS011;41090;48.632;12.428;2023-07-28T02:56:10;4.40;;;4.00;;
55222;SDS011;41090;48.632;12.428;2023-07-28T02:58:35;7.53;;;3.60;;
55222;SDS011;41090;48.632;12.428;2023-07-28T03:01:01;3.67;;;3.37;;
55222;SDS011;41090;48.632;12.428;2023-07-28T03:03:26;6.10;;;4.10;;
55222;SDS011;41090;48.632;12.428;2023-07-28T03:05:52;3.77;;;3.07;;
55222;SDS011;41090;48.632;12.428;2023-07-28T03:08:19;4.63;;;4.23;;
55222;SDS011;41090;48.632;12.428;2023-07-28T03:10:45;3.87;;;3.40;;
55222;SDS011;41090;48.632;12.428;2023-07-28T03:13:10;4.23;;;3.83;;
55222;SDS011;41090;48.632;12.428;2023-07-28T03:15:35;5.40;;;3.80;;
55222;SDS011;41090;48.632;12.428;2023-07-28T03:18:00;4.47;;;3.93;;
55222;SDS011;41090;48.632;12.428;2023-07-28T03:20:26;4.50;;;4.03;;
55222;SDS011;41090;48.632;12.428;2023-07-28T03:22:51;5.57;;;3.83;;
55222;SDS011;41090;48.632;12.428;2023-07-28T03:25:16;4.77;;;4.13;;
55222;SDS011;41090;48.632;12.428;2023-07-28T03:27:42;4.20;;;3.80;;
55222;SDS011;41090;48.632;12.428;2023-07-28T03:30:07;4.03;;;3.63;;
55222;SDS011;41090;48.632;12.428;2023-07-28T03:32:36;4.87;;;3.67;;
55222;SDS011;41090;48.632;12.428;2023-07-28T03:35:01;4.10;;;3.70;;
55222;SDS011;41090;48.632;12.428;2023-07-28T03:37:26;4.40;;;3.70;;
55222;SDS011;41090;48.632;12.428;2023-07-28T03:39:52;4.57;;;3.90;;
55222;SDS011;41090;48.632;12.428;2023-07-28T03:42:17;4.03;;;3.50;;
55222;SDS011;41090;48.632;12.428;2023-07-28T03:44:42;3.90;;;3.50;;
55222;SDS011;41090;48.632;12.428;2023-07-28T03:47:08;4.40;;;4.00;;
55222;SDS011;41090;48.632;12.428;2023-07-28T03:49:33;5.90;;;4.10;;
55222;SDS011;41090;48.632;12.428;2023-07-28T03:51:58;4.30;;;3.90;;
55222;SDS011;41090;48.632;12.428;2023-07-28T03:54:24;5.77;;;3.90;;
55222;SDS011;41090;48.632;12.428;2023-07-28T03:56:49;4.30;;;3.90;;
55222;SDS011;41090;48.632;12.428;2023-07-28T03:59:14;4.23;;;3.83;;
55222;SDS011;41090;48.632;12.428;2023-07-28T04:01:40;4.73;;;3.67;;
55222;SDS011;41090;48.632;12.428;2023-07-28T04:04:05;3.60;;;3.30;;
55222;SDS011;41090;48.632;12.428;2023-07-28T04:09:05;4.20;;;3.47;;
55222;SDS011;41090;48.632;12.428;2023-07-28T04:11:32;4.07;;;3.67;;
55222;SDS011;41090;48.632;12.428;2023-07-28T04:13:57;4.30;;;3.90;;
55222;SDS011;41090;48.632;12.428;2023-07-28T04:16:22;7.60;;;4.23;;
55222;SDS011;41090;48.632;12.428;2023-07-28T04:18:47;4.83;;;4.30;;
55222;SDS011;41090;48.632;12.428;2023-07-28T04:21:13;5.13;;;3.90;;
55222;SDS011;41090;48.632;12.428;2023-07-28T04:23:38;5.57;;;4.13;;
55222;SDS011;41090;48.632;12.428;2023-07-28T04:26:03;5.30;;;4.40;;
55222;SDS011;41090;48.632;12.428;2023-07-28T04:28:29;4.80;;;3.97;;
55222;SDS011;41090;48.632;12.428;2023-07-28T04:30:54;6.00;;;4.00;;
55222;SDS011;41090;48.632;12.428;2023-07-28T04:33:20;5.50;;;4.20;;
55222;SDS011;41090;48.632;12.428;2023-07-28T04:35:45;4.10;;;3.80;;
55222;SDS011;41090;48.632;12.428;2023-07-28T04:38:10;6.10;;;4.07;;
55222;SDS011;41090;48.632;12.428;2023-07-28T04:40:36;4.20;;;3.80;;
55222;SDS011;41090;48.632;12.428;2023-07-28T04:43:01;5.67;;;4.27;;
55222;SDS011;41090;48.632;12.428;2023-07-28T04:45:26;6.60;;;4.60;;
55222;SDS011;41090;48.632;12.428;2023-07-28T04:47:52;5.77;;;4.17;;
55222;SDS011;41090;48.632;12.428;2023-07-28T04:50:18;4.73;;;4.33;;
55222;SDS011;41090;48.632;12.428;2023-07-28T04:52:43;6.13;;;4.63;;
55222;SDS011;41090;48.632;12.428;2023-07-28T04:55:08;5.40;;;4.90;;
55222;SDS011;41090;48.632;12.428;2023-07-28T04:57:33;5.30;;;4.80;;
55222;SDS011;41090;48.632;12.428;2023-07-28T04:59:59;5.93;;;5.30;;
55222;SDS011;41090;48.632;12.428;2023-07-28T05:02:24;6.63;;;5.10;;
55222;SDS011;41090;48.632;12.428;2023-07-28T05:04:49;6.37;;;5.53;;
55222;SDS011;41090;48.632;12.428;2023-07-28T05:07:15;6.80;;;5.10;;
55222;SDS011;41090;48.632;12.428;2023-07-28T05:09:40;5.97;;;4.27;;
55222;SDS011;41090;48.632;12.428;2023-07-28T05:12:05;5.10;;;4.70;;
55222;SDS011;41090;48.632;12.428;2023-07-28T05:14:31;5.73;;;5.03;;
55222;SDS011;41090;48.632;12.428;2023-07-28T05:16:56;6.13;;;5.10;;
55222;SDS011;41090;48.632;12.428;2023-07-28T05:19:21;7.57;;;6.10;;
55222;SDS011;41090;48.632;12.428;2023-07-28T05:21:47;5.90;;;5.30;;
55222;SDS011;41090;48.632;12.428;2023-07-28T05:24:12;6.13;;;5.53;;
55222;SDS011;41090;48.632;12.428;2023-07-28T05:26:37;5.90;;;5.30;;
55222;SDS011;41090;48.632;12.428;2023-07-28T05:29:03;4.60;;;4.20;;
55222;SDS011;41090;48.632;12.428;2023-07-28T05:31:28;5.30;;;4.80;;
55222;SDS011;41090;48.632;12.428;2023-07-28T05:33:53;7.23;;;5.97;;
55222;SDS011;41090;48.632;12.428;2023-07-28T05:36:19;7.03;;;5.13;;
55222;SDS011;41090;48.632;12.428;2023-07-28T05:38:44;5.30;;;4.80;;
55222;SDS011;41090;48.632;12.428;2023-07-28T05:41:09;4.97;;;4.57;;
55222;SDS011;41090;48.632;12.428;2023-07-28T05:43:35;4.77;;;4.37;;
55222;SDS011;41090;48.632;12.428;2023-07-28T05:46:00;5.50;;;5.00;;
55222;SDS011;41090;48.632;12.428;2023-07-28T05:48:26;6.20;;;5.33;;
55222;SDS011;41090;48.632;12.428;2023-07-28T05:50:51;5.43;;;4.93;;
55222;SDS011;41090;48.632;12.428;2023-07-28T05:53:18;7.87;;;6.30;;
55222;SDS011;41090;48.632;12.428;2023-07-28T05:55:43;6.07;;;5.03;;
55222;SDS011;41090;48.632;12.428;2023-07-28T05:58:09;8.67;;;6.00;;
55222;SDS011;41090;48.632;12.428;2023-07-28T06:00:34;7.17;;;5.87;;
55222;SDS011;41090;48.632;12.428;2023-07-28T06:02:59;9.37;;;6.17;;
55222;SDS011;41090;48.632;12.428;2023-07-28T06:05:24;6.20;;;5.60;;
55222;SDS011;41090;48.632;12.428;2023-07-28T06:07:50;6.80;;;6.10;;
55222;SDS011;41090;48.632;12.428;2023-07-28T06:10:15;9.53;;;5.77;;
55222;SDS011;41090;48.632;12.428;2023-07-28T06:12:40;5.20;;;4.70;;
55222;SDS011;41090;48.632;12.428;2023-07-28T06:15:06;5.40;;;4.90;;
55222;SDS011;41090;48.632;12.428;2023-07-28T06:17:31;5.63;;;5.13;;
55222;SDS011;41090;48.632;12.428;2023-07-28T06:19:56;5.33;;;4.83;;
55222;SDS011;41090;48.632;12.428;2023-07-28T06:22:22;5.07;;;4.57;;
55222;SDS011;41090;48.632;12.428;2023-07-28T06:24:47;5.50;;;5.00;;
55222;SDS011;41090;48.632;12.428;2023-07-28T06:27:12;7.20;;;5.20;;
55222;SDS011;41090;48.632;12.428;2023-07-28T06:29:37;5.53;;;5.03;;
55222;SDS011;41090;48.632;12.428;2023-07-28T06:32:03;5.87;;;4.47;;
55222;SDS011;41090;48.632;12.428;2023-07-28T06:34:28;4.80;;;4.33;;
55222;SDS011;41090;48.632;12.428;2023-07-28T06:36:53;4.80;;;4.40;;
55222;SDS011;41090;48.632;12.428;2023-07-28T06:39:19;4.87;;;4.00;;
55222;SDS011;41090;48.632;12.428;2023-07-28T06:41:44;4.63;;;4.10;;
55222;SDS011;41090;48.632;12.428;2023-07-28T06:44:09;4.47;;;4.07;;
55222;SDS011;41090;48.632;12.428;2023-07-28T06:46:34;4.30;;;3.50;;
55222;SDS011;41090;48.632;12.428;2023-07-28T06:49:00;5.00;;;3.80;;
55222;SDS011;41090;48.632;12.428;2023-07-28T06:51:25;3.73;;;3.43;;
55222;SDS011;41090;48.632;12.428;2023-07-28T06:53:51;3.67;;;3.37;;
55222;SDS011;41090;48.632;12.428;2023-07-28T06:56:16;3.80;;;3.50;;
55222;SDS011;41090;48.632;12.428;2023-07-28T06:58:41;3.70;;;3.40;;
55222;SDS011;41090;48.632;12.428;2023-07-28T07:01:06;5.68;;;3.60;;
55222;SDS011;41090;48.632;12.428;2023-07-28T07:03:35;5.23;;;3.80;;
55222;SDS011;41090;48.632;12.428;2023-07-28T07:06:01;5.15;;;3.63;;
55222;SDS011;41090;48.632;12.428;2023-07-28T07:08:26;3.80;;;3.38;;
55222;SDS011;41090;48.632;12.428;2023-07-28T07:10:52;3.30;;;3.00;;
55222;SDS011;41090;48.632;12.428;2023-07-28T07:13:17;5.68;;;3.58;;
55222;SDS011;41090;48.632;12.428;2023-07-28T07:15:43;4.75;;;3.33;;
55222;SDS011;41090;48.632;12.428;2023-07-28T07:18:08;4.20;;;3.42;;
55222;SDS011;41090;48.632;12.428;2023-07-28T07:20:34;4.55;;;3.17;;
55222;SDS011;41090;48.632;12.428;2023-07-28T07:22:59;3.22;;;3.03;;
55222;SDS011;41090;48.632;12.428;2023-07-28T07:25:25;3.28;;;2.97;;
55222;SDS011;41090;48.632;12.428;2023-07-28T07:27:50;5.15;;;3.50;;
55222;SDS011;41090;48.632;12.428;2023-07-28T07:30:16;4.70;;;3.28;;
55222;SDS011;41090;48.632;12.428;2023-07-28T07:32:41;4.22;;;3.33;;
55222;SDS011;41090;48.632;12.428;2023-07-28T07:35:06;3.40;;;3.10;;
55222;SDS011;41090;48.632;12.428;2023-07-28T07:37:32;3.33;;;3.03;;
55222;SDS011;41090;48.632;12.428;2023-07-28T07:39:57;4.53;;;3.10;;
55222;SDS011;41090;48.632;12.428;2023-07-28T07:42:23;4.55;;;2.95;;
55222;SDS011;41090;48.632;12.428;2023-07-28T07:44:48;4.57;;;3.22;;
55222;SDS011;41090;48.632;12.428;2023-07-28T07:47:14;2.92;;;2.72;;
55222;SDS011;41090;48.632;12.428;2023-07-28T07:49:39;3.63;;;3.33;;
55222;SDS011;41090;48.632;12.428;2023-07-28T07:52:06;5.85;;;3.65;;
55222;SDS011;41090;48.632;12.428;2023-07-28T07:54:31;4.57;;;3.22;;
55222;SDS011;41090;48.632;12.428;2023-07-28T07:56:57;3.30;;;3.00;;
55222;SDS011;41090;48.632;12.428;2023-07-28T07:59:22;5.07;;;3.30;;
55222;SDS011;41090;48.632;12.428;2023-07-28T08:01:51;3.25;;;2.95;;
55222;SDS011;41090;48.632;12.428;2023-07-28T08:04:16;3.15;;;2.85;;
55222;SDS011;41090;48.632;12.428;2023-07-28T08:06:41;3.30;;;3.00;;
55222;SDS011;41090;48.632;12.428;2023-07-28T08:09:07;3.47;;;3.05;;
55222;SDS011;41090;48.632;12.428;2023-07-28T08:11:32;4.38;;;3.20;;
55222;SDS011;41090;48.632;12.428;2023-07-28T08:13:58;3.25;;;2.95;;
55222;SDS011;41090;48.632;12.428;2023-07-28T08:16:23;3.20;;;2.85;;
55222;SDS011;41090;48.632;12.428;2023-07-28T08:18:48;3.45;;;2.83;;
55222;SDS011;41090;48.632;12.428;2023-07-28T08:21:14;3.35;;;3.05;;
55222;SDS011;41090;48.632;12.428;2023-07-28T08:23:40;3.70;;;3.40;;
55222;SDS011;41090;48.632;12.428;2023-07-28T08:26:05;6.70;;;3.20;;
55222;SDS011;41090;48.632;12.428;2023-07-28T08:28:30;4.38;;;3.30;;
55222;SDS011;41090;48.632;12.428;2023-07-28T08:30:57;3.40;;;3.10;;
55222;SDS011;41090;48.632;12.428;2023-07-28T08:33:24;3.25;;;2.95;;
55222;SDS011;41090;48.632;12.428;2023-07-28T08:35:49;3.88;;;2.92;;
55222;SDS011;41090;48.632;12.428;2023-07-28T08:38:14;6.30;;;2.92;;
55222;SDS011;41090;48.632;12.428;2023-07-28T08:40:39;3.45;;;3.15;;
55222;SDS011;41090;48.632;12.428;2023-07-28T08:43:05;5.57;;;3.10;;
55222;SDS011;41090;48.632;12.428;2023-07-28T08:45:30;3.95;;;2.95;;
55222;SDS011;41090;48.632;12.428;2023-07-28T08:47:56;4.60;;;3.05;;
55222;SDS011;41090;48.632;12.428;2023-07-28T08:50:21;3.10;;;2.72;;
55222;SDS011;41090;48.632;12.428;2023-07-28T08:52:46;2.70;;;2.45;;
55222;SDS011;41090;48.632;12.428;2023-07-28T08:55:12;3.45;;;2.70;;
55222;SDS011;41090;48.632;12.428;2023-07-28T08:57:38;3.17;;;2.88;;
55222;SDS011;41090;48.632;12.428;2023-07-28T09:00:09;3.95;;;2.70;;
55222;SDS011;41090;48.632;12.428;2023-07-28T09:02:36;6.70;;;2.75;;
55222;SDS011;41090;48.632;12.428;2023-07-28T09:05:02;2.95;;;2.70;;
55222;SDS011;41090;48.632;12.428;2023-07-28T09:07:33;3.03;;;2.65;;
55222;SDS011;41090;48.632;12.428;2023-07-28T09:10:02;2.97;;;2.78;;
55222;SDS011;41090;48.632;12.428;2023-07-28T09:12:30;3.40;;;3.10;;
55222;SDS011;41090;48.632;12.428;2023-07-28T09:14:56;3.40;;;3.10;;
55222;SDS011;41090;48.632;12.428;2023-07-28T09:17:21;3.80;;;3.17;;
55222;SDS011;41090;48.632;12.428;2023-07-28T09:19:53;3.83;;;3.25;;
55222;SDS011;41090;48.632;12.428;2023-07-28T09:22:18;4.15;;;3.42;;
55222;SDS011;41090;48.632;12.428;2023-07-28T09:24:45;3.40;;;3.10;;
55222;SDS011;41090;48.632;12.428;2023-07-28T09:27:18;2.88;;;2.67;;
55222;SDS011;41090;48.632;12.428;2023-07-28T09:29:47;4.07;;;2.83;;
55222;SDS011;41090;48.632;12.428;2023-07-28T09:32:12;4.13;;;3.08;;
55222;SDS011;41090;48.632;12.428;2023-07-28T09:34:38;3.67;;;2.90;;
55222;SDS011;41090;48.632;12.428;2023-07-28T09:37:05;3.03;;;2.83;;
55222;SDS011;41090;48.632;12.428;2023-07-28T09:39:30;5.70;;;2.92;;
55222;SDS011;41090;48.632;12.428;2023-07-28T09:41:56;3.20;;;2.90;;
55222;SDS011;41090;48.632;12.428;2023-07-28T09:44:23;3.22;;;2.95;;
55222;SDS011;41090;48.632;12.428;2023-07-28T09:46:52;3.65;;;2.80;;
55222;SDS011;41090;48.632;12.428;2023-07-28T09:49:27;3.03;;;2.83;;
55222;SDS011;41090;48.632;12.428;2023-07-28T09:51:53;3.60;;;3.30;;
55222;SDS011;41090;48.632;12.428;2023-07-28T09:54:25;3.30;;;3.00;;
55222;SDS011;41090;48.632;12.428;2023-07-28T09:56:57;3.58;;;3.22;;
55222;SDS011;41090;48.632;12.428;2023-07-28T09:59:32;3.25;;;2.95;;
55222;SDS011;41090;48.632;12.428;2023-07-28T10:02:01;3.45;;;3.15;;
55222;SDS011;41090;48.632;12.428;2023-07-28T10:04:27;3.28;;;3.00;;
55222;SDS011;41090;48.632;12.428;2023-07-28T10:06:52;3.58;;;3.28;;
55222;SDS011;41090;48.632;12.428;2023-07-28T10:09:23;3.50;;;3.17;;
55222;SDS011;41090;48.632;12.428;2023-07-28T10:11:48;3.72;;;3.35;;
55222;SDS011;41090;48.632;12.428;2023-07-28T10:14:25;4.32;;;3.33;;
55222;SDS011;41090;48.632;12.428;2023-07-28T10:16:50;4.53;;;3.53;;
55222;SDS011;41090;48.632;12.428;2023-07-28T10:19:19;4.20;;;3.30;;
55222;SDS011;41090;48.632;12.428;2023-07-28T10:21:45;3.40;;;3.10;;
55222;SDS011;41090;48.632;12.428;2023-07-28T10:24:10;3.65;;;3.35;;
55222;SDS011;41090;48.632;12.428;2023-07-28T10:26:37;4.05;;;3.50;;
55222;SDS011;41090;48.632;12.428;2023-07-28T10:29:09;3.70;;;3.40;;
55222;SDS011;41090;48.632;12.428;2023-07-28T10:31:35;3.65;;;3.35;;
55222;SDS011;41090;48.632;12.428;2023-07-28T10:34:01;7.85;;;3.38;;
55222;SDS011;41090;48.632;12.428;2023-07-28T10:41:29;4.05;;;3.38;;
55222;SDS011;41090;48.632;12.428;2023-07-28T10:43:55;4.63;;;3.50;;
55222;SDS011;41090;48.632;12.428;2023-07-28T10:46:21;3.85;;;3.40;;
55222;SDS011;41090;48.632;12.428;2023-07-28T10:48:47;3.40;;;3.10;;
55222;SDS011;41090;48.632;12.428;2023-07-28T10:51:20;5.30;;;3.75;;
55222;SDS011;41090;48.632;12.428;2023-07-28T10:53:45;4.18;;;3.50;;
55222;SDS011;41090;48.632;12.428;2023-07-28T10:56:11;4.28;;;3.22;;
55222;SDS011;41090;48.632;12.428;2023-07-28T10:58:37;4.05;;;3.17;;
55222;SDS011;41090;48.632;12.428;2023-07-28T11:01:02;5.03;;;3.75;;
55222;SDS011;41090;48.632;12.428;2023-07-28T11:03:27;3.97;;;3.58;;
55222;SDS011;41090;48.632;12.428;2023-07-28T11:05:53;3.25;;;2.95;;
55222;SDS011;41090;48.632;12.428;2023-07-28T11:08:19;3.28;;;2.97;;
55222;SDS011;41090;48.632;12.428;2023-07-28T11:10:44;4.50;;;3.17;;
55222;SDS011;41090;48.632;12.428;2023-07-28T11:13:10;4.93;;;3.42;;
55222;SDS011;41090;48.632;12.428;2023-07-28T11:15:35;4.60;;;3.60;;
55222;SDS011;41090;48.632;12.428;2023-07-28T11:18:00;4.50;;;3.70;;
55222;SDS011;41090;48.632;12.428;2023-07-28T11:20:28;4.20;;;3.45;;
55222;SDS011;41090;48.632;12.428;2023-07-28T11:23:00;3.83;;;3.47;;
55222;SDS011;41090;48.632;12.428;2023-07-28T11:25:27;4.93;;;3.47;;
55222;SDS011;41090;48.632;12.428;2023-07-28T11:27:53;3.63;;;3.22;;
55222;SDS011;41090;48.632;12.428;2023-07-28T11:30:19;5.45;;;4.13;;
55222;SDS011;41090;48.632;12.428;2023-07-28T11:32:46;3.95;;;3.65;;
55222;SDS011;41090;48.632;12.428;2023-07-28T11:35:11;4.85;;;4.05;;
55222;SDS011;41090;48.632;12.428;2023-07-28T11:37:37;4.55;;;3.92;;
55222;SDS011;41090;48.632;12.428;2023-07-28T11:40:04;3.92;;;3.63;;
55222;SDS011;41090;48.632;12.428;2023-07-28T11:42:34;3.85;;;3.55;;
55222;SDS011;41090;48.632;12.428;2023-07-28T11:45:02;4.88;;;3.72;;
55222;SDS011;41090;48.632;12.428;2023-07-28T11:47:27;3.75;;;3.38;;
55222;SDS011;41090;48.632;12.428;2023-07-28T11:49:52;3.72;;;3.42;;
55222;SDS011;41090;48.632;12.428;2023-07-28T11:52:18;4.32;;;3.92;;
55222;SDS011;41090;48.632;12.428;2023-07-28T11:54:44;9.23;;;4.80;;
55222;SDS011;41090;48.632;12.428;2023-07-28T11:57:10;8.02;;;4.32;;
55222;SDS011;41090;48.632;12.428;2023-07-28T11:59:35;5.03;;;4.15;;
55222;SDS011;41090;48.632;12.428;2023-07-28T12:02:01;6.30;;;4.05;;
55222;SDS011;41090;48.632;12.428;2023-07-28T12:04:37;8.60;;;4.97;;
55222;SDS011;41090;48.632;12.428;2023-07-28T12:12:23;5.05;;;4.40;;
55222;SDS011;41090;48.632;12.428;2023-07-28T12:14:49;6.35;;;4.72;;
55222;SDS011;41090;48.632;12.428;2023-07-28T12:17:23;5.78;;;4.40;;
55222;SDS011;41090;48.632;12.428;2023-07-28T12:20:06;5.30;;;3.97;;
55222;SDS011;41090;48.632;12.428;2023-07-28T12:22:36;3.90;;;3.60;;
55222;SDS011;41090;48.632;12.428;2023-07-28T12:25:02;4.18;;;3.78;;
55222;SDS011;41090;48.632;12.428;2023-07-28T12:27:27;4.50;;;3.70;;
55222;SDS011;41090;48.632;12.428;2023-07-28T12:29:52;3.70;;;3.40;;
55222;SDS011;41090;48.632;12.428;2023-07-28T12:32:18;3.50;;;3.20;;
55222;SDS011;41090;48.632;12.428;2023-07-28T12:34:43;3.50;;;3.20;;
55222;SDS011;41090;48.632;12.428;2023-07-28T12:37:09;3.65;;;2.92;;
55222;SDS011;41090;48.632;12.428;2023-07-28T12:39:38;4.07;;;3.28;;
55222;SDS011;41090;48.632;12.428;2023-07-28T12:42:06;3.83;;;3.42;;
55222;SDS011;41090;48.632;12.428;2023-07-28T12:44:32;4.03;;;3.08;;
55222;SDS011;41090;48.632;12.428;2023-07-28T12:46:57;3.38;;;3.08;;
55222;SDS011;41090;48.632;12.428;2023-07-28T12:49:23;3.95;;;3.55;;
55222;SDS011;41090;48.632;12.428;2023-07-28T12:51:48;3.72;;;3.35;;
55222;SDS011;41090;48.632;12.428;2023-07-28T12:54:13;3.38;;;3.08;;
55222;SDS011;41090;48.632;12.428;2023-07-28T12:56:38;3.60;;;3.10;;
55222;SDS011;41090;48.632;12.428;2023-07-28T12:59:04;3.15;;;2.85;;
55222;SDS011;41090;48.632;12.428;2023-07-28T13:01:29;3.58;;;3.28;;
55222;SDS011;41090;48.632;12.428;2023-07-28T13:03:54;4.80;;;3.30;;
55222;SDS011;41090;48.632;12.428;2023-07-28T13:06:20;3.30;;;3.00;;
55222;SDS011;41090;48.632;12.428;2023-07-28T13:08:46;4.85;;;3.50;;
55222;SDS011;41090;48.632;12.428;2023-07-28T13:11:11;3.78;;;3.33;;
55222;SDS011;41090;48.632;12.428;2023-07-28T13:13:39;3.80;;;3.20;;
55222;SDS011;41090;48.632;12.428;2023-07-28T13:16:04;4.13;;;3.50;;
55222;SDS011;41090;48.632;12.428;2023-07-28T13:18:29;3.83;;;3.42;;
55222;SDS011;41090;48.632;12.428;2023-07-28T13:20:56;3.90;;;3.50;;
55222;SDS011;41090;48.632;12.428;2023-07-28T13:23:21;3.97;;;3.60;;
55222;SDS011;41090;48.632;12.428;2023-07-28T13:25:46;4.85;;;3.22;;
55222;SDS011;41090;48.632;12.428;2023-07-28T13:28:12;4.32;;;3.15;;
55222;SDS011;41090;48.632;12.428;2023-07-28T13:30:37;3.10;;;2.80;;
55222;SDS011;41090;48.632;12.428;2023-07-28T13:33:02;5.43;;;2.70;;
55222;SDS011;41090;48.632;12.428;2023-07-28T13:35:28;5.35;;;3.13;;
55222;SDS011;41090;48.632;12.428;2023-07-28T13:37:53;3.35;;;3.03;;
55222;SDS011;41090;48.632;12.428;2023-07-28T13:40:18;3.28;;;2.97;;
55222;SDS011;41090;48.632;12.428;2023-07-28T13:42:44;4.35;;;2.92;;
55222;SDS011;41090;48.632;12.428;2023-07-28T13:45:09;4.20;;;2.80;;
55222;SDS011;41090;48.632;12.428;2023-07-28T13:47:34;6.00;;;3.08;;
55222;SDS011;41090;48.632;12.428;2023-07-28T13:50:00;4.10;;;3.42;;
55222;SDS011;41090;48.632;12.428;2023-07-28T13:52:25;4.32;;;3.25;;
55222;SDS011;41090;48.632;12.428;2023-07-28T13:54:50;5.32;;;3.15;;
55222;SDS011;41090;48.632;12.428;2023-07-28T13:57:16;3.25;;;2.92;;
55222;SDS011;41090;48.632;12.428;2023-07-28T13:59:41;3.25;;;2.70;;
55222;SDS011;41090;48.632;12.428;2023-07-28T14:02:06;3.00;;;2.80;;
55222;SDS011;41090;48.632;12.428;2023-07-28T14:04:32;4.25;;;2.72;;
55222;SDS011;41090;48.632;12.428;2023-07-28T14:06:57;2.88;;;2.67;;
55222;SDS011;41090;48.632;12.428;2023-07-28T14:09:23;3.70;;;2.60;;
55222;SDS011;41090;48.632;12.428;2023-07-28T14:11:49;2.72;;;2.53;;
55222;SDS011;41090;48.632;12.428;2023-07-28T14:14:14;2.42;;;2.20;;
55222;SDS011;41090;48.632;12.428;2023-07-28T14:16:39;3.00;;;2.28;;
55222;SDS011;41090;48.632;12.428;2023-07-28T14:19:04;2.70;;;2.45;;
55222;SDS011;41090;48.632;12.428;2023-07-28T14:21:30;2.90;;;2.42;;
55222;SDS011;41090;48.632;12.428;2023-07-28T14:23:55;5.38;;;2.47;;
55222;SDS011;41090;48.632;12.428;2023-07-28T14:26:20;2.75;;;2.50;;
55222;SDS011;41090;48.632;12.428;2023-07-28T14:28:45;2.63;;;2.30;;
55222;SDS011;41090;48.632;12.428;2023-07-28T14:31:11;3.65;;;2.28;;
55222;SDS011;41090;48.632;12.428;2023-07-28T14:33:36;2.50;;;2.30;;
55222;SDS011;41090;48.632;12.428;2023-07-28T14:36:01;3.05;;;2.05;;
55222;SDS011;41090;48.632;12.428;2023-07-28T14:38:27;3.80;;;2.80;;
55222;SDS011;41090;48.632;12.428;2023-07-28T14:40:52;5.45;;;2.50;;
55222;SDS011;41090;48.632;12.428;2023-07-28T14:43:17;2.42;;;2.20;;